Startpagina
METAR-TAF:

METAR-TAF

Vliegvelden :

Genève, Zwitserland

Luchthaven Genève

breedte: 46-15N, lengte: 006-08E, hoogte: 420 m

Actueel weer

Dit bericht is 26 minuten geleden gemaakt, om 14:50 UTC
Wind 5 kt uit het oosten, variërend tussen het noordoosten en het oostzuidoosten
Temperatuur 20°C
Vochtigheid 60%
Druk 1020 hPa
Zicht 10 km of meer
Weinig wolken op 8000 ft
Gebroken wolken op 24000 ft

METAR: LSGG 221450Z 08005KT 050V120 9999 FEW080 BKN240 20/12 Q1020 NOSIG

Tijdstip: 17:16 (15:16 UTC)

Verwachting

Dit bericht is 51 minuten geleden gemaakt, om 14:25 UTC
Verwachting geldig van 22 om 15 UTC tot 23 om 21 UTC
Wind 3 kt uit variabele richting
Zicht 10 km of meer
geen wolken onder 1500 m en geen cumulonimbus

TAF: LSGG 221425Z 2215/2321 VRB03KT CAVOK TX21/2215Z TN09/2305Z TX21/2315Z

Waarnemingen en weersverwachtingen van meer dan 4000 vliegvelden (METAR en TAF).

De beschikbare stations zijn de gele en rode punten op de kaart.

Ga met uw muis naar het station om de naam te zien.

Klik dan om waarnemingen en weersverwachtingen te zien.

kaart wijzigen: klik op de groene knoppen met een zwart kruis om in te zoomen, op de groene knop met een streepje om uit te zoomen of op de groene pijlen voor aangrenzende kaarten.


METAR-TAF: